createdAt,value
2022-11-05T00:04:34.339Z,17.80
2022-11-05T00:10:03.692Z,20.43
2022-11-05T00:15:44.838Z,16.47
2022-11-05T00:21:26.993Z,19.60
2022-11-05T00:26:49.526Z,20.30
2022-11-05T00:32:11.874Z,21.30
2022-11-05T00:37:34.210Z,21.70
2022-11-05T00:43:15.127Z,19.90
2022-11-05T00:48:56.101Z,20.93
2022-11-05T00:54:18.206Z,18.63
2022-11-05T00:59:40.369Z,17.70
2022-11-05T01:05:02.828Z,18.33
2022-11-05T01:10:25.841Z,18.77
2022-11-05T01:15:48.672Z,18.23
2022-11-05T01:21:15.966Z,16.67
2022-11-05T01:26:38.360Z,16.90
2022-11-05T01:32:00.968Z,15.13
2022-11-05T01:37:23.416Z,15.63
2022-11-05T01:42:46.232Z,17.03
2022-11-05T01:48:11.069Z,17.37
2022-11-05T01:53:39.060Z,12.00
2022-11-05T01:59:16.853Z,13.90
2022-11-05T02:04:44.448Z,15.63
2022-11-05T02:10:09.813Z,11.30
2022-11-05T02:16:09.033Z,9.90
2022-11-05T02:21:31.554Z,9.13
2022-11-05T02:27:05.879Z,10.37
2022-11-05T02:32:49.279Z,13.80
2022-11-05T02:38:18.731Z,8.53
2022-11-05T02:44:13.185Z,11.80
2022-11-05T02:50:14.219Z,8.63
2022-11-05T02:55:53.702Z,10.37
2022-11-05T03:01:16.483Z,14.13
2022-11-05T03:06:42.031Z,10.27
2022-11-05T03:12:10.263Z,7.43
2022-11-05T03:17:44.815Z,7.40
2022-11-05T03:23:32.309Z,11.33
2022-11-05T03:29:00.504Z,8.53
2022-11-05T03:34:30.230Z,10.43
2022-11-05T03:39:55.917Z,9.93
2022-11-05T03:45:33.345Z,10.57
2022-11-05T03:51:01.362Z,12.53
2022-11-05T03:56:53.023Z,8.47
2022-11-05T04:02:18.020Z,11.07
2022-11-05T04:07:59.092Z,9.63
2022-11-05T04:13:24.230Z,6.13
2022-11-05T04:18:47.434Z,12.60
2022-11-05T04:24:10.022Z,10.17
2022-11-05T04:29:50.957Z,9.13
2022-11-05T04:35:13.458Z,12.33
2022-11-05T04:40:36.037Z,8.27
2022-11-05T04:45:58.297Z,10.83
2022-11-05T04:51:20.669Z,6.73
2022-11-05T04:56:42.814Z,12.33
2022-11-05T05:02:05.241Z,11.60
2022-11-05T05:07:28.537Z,14.77
2022-11-05T05:12:51.079Z,9.90
2022-11-05T05:18:13.538Z,12.53
2022-11-05T05:23:35.665Z,9.33
2022-11-05T05:28:57.891Z,9.30
2022-11-05T05:34:20.460Z,15.20
2022-11-05T05:39:44.666Z,12.77
2022-11-05T05:45:07.227Z,13.40
2022-11-05T05:50:29.812Z,18.27
2022-11-05T05:55:54.086Z,17.20
2022-11-05T06:01:19.650Z,13.50
2022-11-05T06:06:46.853Z,13.63
2022-11-05T06:12:09.005Z,14.20
2022-11-05T06:17:32.869Z,13.90
2022-11-05T06:22:56.536Z,16.03
2022-11-05T06:28:18.890Z,13.10
2022-11-05T06:33:41.659Z,19.17
2022-11-05T06:39:03.828Z,14.17
2022-11-05T06:44:26.139Z,11.33
2022-11-05T06:49:48.403Z,16.93
2022-11-05T06:55:10.755Z,14.87
2022-11-05T07:00:33.286Z,16.33
2022-11-05T07:05:59.376Z,15.87
2022-11-05T07:11:22.013Z,12.97
2022-11-05T07:16:44.470Z,11.47
2022-11-05T07:22:06.844Z,14.07
2022-11-05T07:27:29.268Z,10.50
2022-11-05T07:32:51.514Z,13.87
2022-11-05T07:38:13.732Z,14.67
2022-11-05T07:43:36.344Z,11.10
2022-11-05T07:48:58.442Z,15.03
2022-11-05T07:54:20.842Z,11.27
2022-11-05T07:59:43.392Z,17.27
2022-11-05T08:05:06.714Z,14.00
2022-11-05T08:10:29.202Z,15.60
2022-11-05T08:15:51.809Z,20.90
2022-11-05T08:21:14.171Z,18.40
2022-11-05T08:26:36.508Z,19.70
2022-11-05T08:31:58.812Z,14.03
2022-11-05T08:37:20.813Z,19.90
2022-11-05T08:42:43.921Z,12.80
2022-11-05T08:48:12.254Z,15.77
2022-11-05T08:53:34.616Z,19.43
2022-11-05T08:58:57.112Z,14.23
2022-11-05T09:04:19.502Z,13.60
2022-11-05T09:09:41.866Z,12.60
2022-11-05T09:15:04.371Z,13.17
2022-11-05T09:20:26.957Z,14.93
2022-11-05T09:25:49.191Z,19.17
2022-11-05T09:31:12.190Z,19.10
2022-11-05T09:36:34.812Z,11.77
2022-11-05T09:42:02.702Z,13.87
2022-11-05T09:47:30.967Z,12.60
2022-11-05T09:52:53.196Z,19.93
2022-11-05T09:58:37.344Z,11.83
2022-11-05T10:04:05.977Z,10.27
2022-11-05T10:09:40.279Z,11.60
2022-11-05T10:15:22.454Z,14.03
2022-11-05T10:20:46.223Z,10.83
2022-11-05T10:26:14.650Z,13.87
2022-11-05T10:31:38.651Z,15.50
2022-11-05T10:37:01.452Z,13.87
2022-11-05T10:42:32.566Z,11.70
2022-11-05T10:48:05.486Z,17.23
2022-11-05T10:53:32.570Z,13.40
2022-11-05T10:58:57.661Z,10.33
2022-11-05T11:04:25.304Z,12.73
2022-11-05T11:09:50.041Z,8.53
2022-11-05T11:15:15.475Z,7.87
2022-11-05T11:20:44.732Z,8.30
2022-11-05T11:26:08.837Z,11.50
2022-11-05T11:31:33.562Z,12.83
2022-11-05T11:37:23.272Z,7.97
2022-11-05T11:42:56.891Z,7.10
2022-11-05T11:48:24.329Z,6.30
2022-11-05T11:53:49.360Z,10.87
2022-11-05T11:59:46.671Z,7.40
2022-11-05T12:05:25.605Z,4.10
2022-11-05T12:10:54.195Z,6.57
2022-11-05T12:16:29.896Z,7.63
2022-11-05T12:22:13.934Z,2.50
2022-11-05T12:27:36.044Z,6.47
2022-11-05T12:33:45.183Z,3.17
2022-11-05T12:39:29.585Z,6.20
2022-11-05T12:45:12.490Z,5.20
2022-11-05T12:50:43.903Z,6.43
2022-11-05T12:56:44.276Z,6.53
2022-11-05T13:02:43.401Z,6.60
2022-11-05T13:08:17.245Z,2.47
2022-11-05T13:14:06.017Z,4.27
2022-11-05T13:19:31.111Z,3.47
2022-11-05T13:24:57.767Z,5.27
2022-11-05T13:30:23.319Z,5.93
2022-11-05T13:35:48.315Z,3.93
2022-11-05T13:41:25.753Z,3.80
2022-11-05T13:47:13.113Z,6.27
2022-11-05T13:52:47.466Z,4.60
2022-11-05T13:58:40.970Z,4.87
2022-11-05T14:04:04.543Z,3.20
2022-11-05T14:09:27.519Z,1.60
2022-11-05T14:14:59.069Z,5.13
2022-11-05T14:20:30.773Z,7.17
2022-11-05T14:26:13.115Z,5.80
2022-11-05T14:32:08.743Z,6.87
2022-11-05T14:38:01.435Z,5.70
2022-11-05T14:43:25.920Z,3.97
2022-11-05T14:48:52.906Z,2.90
2022-11-05T14:54:26.016Z,6.37
2022-11-05T14:59:53.435Z,5.47
2022-11-05T15:05:31.135Z,5.80
2022-11-05T15:10:57.486Z,7.10
2022-11-05T15:16:44.628Z,1.90
2022-11-05T15:22:18.504Z,2.93
2022-11-05T15:27:55.072Z,2.53
2022-11-05T15:33:20.507Z,3.23
2022-11-05T15:38:56.679Z,6.40
2022-11-05T15:44:28.895Z,5.90
2022-11-05T15:49:54.249Z,3.63
2022-11-05T15:55:25.177Z,4.33
2022-11-05T16:00:48.798Z,8.53
2022-11-05T16:06:11.514Z,7.23
2022-11-05T16:11:33.867Z,9.50
2022-11-05T16:16:56.257Z,6.27
2022-11-05T16:22:19.425Z,12.57
2022-11-05T16:27:46.157Z,7.33
2022-11-05T16:33:08.290Z,13.70
2022-11-05T16:38:30.428Z,6.27
2022-11-05T16:43:58.040Z,8.17
2022-11-05T16:49:20.775Z,5.57
2022-11-05T16:54:43.400Z,5.83
2022-11-05T17:00:07.079Z,20.97
2022-11-05T17:05:30.750Z,12.77
2022-11-05T17:10:52.868Z,9.33
2022-11-05T17:16:17.537Z,12.63
2022-11-05T17:21:40.044Z,12.70
2022-11-05T17:27:02.182Z,12.53
2022-11-05T17:32:24.973Z,17.47
2022-11-05T17:37:47.721Z,14.30
2022-11-05T17:43:10.471Z,8.67
2022-11-05T17:48:33.272Z,10.17
2022-11-05T17:53:55.581Z,5.60
2022-11-05T17:59:17.875Z,7.43
2022-11-05T18:04:40.109Z,7.63
2022-11-05T18:10:02.339Z,4.77
2022-11-05T18:15:25.114Z,4.87
2022-11-05T18:20:47.640Z,9.93
2022-11-05T18:26:11.138Z,4.90
2022-11-05T18:31:33.408Z,7.10
2022-11-05T18:36:56.820Z,5.33
2022-11-05T18:42:20.748Z,9.63
2022-11-05T18:47:42.933Z,7.83
2022-11-05T18:53:05.485Z,8.80
2022-11-05T18:58:27.563Z,9.87
2022-11-05T19:03:54.660Z,15.10
2022-11-05T19:09:17.146Z,11.13
2022-11-05T19:14:39.618Z,8.90
2022-11-05T19:20:02.745Z,10.47
2022-11-05T19:25:25.029Z,14.77
2022-11-05T19:30:47.706Z,15.20
2022-11-05T19:36:11.501Z,17.17
2022-11-05T19:41:35.780Z,15.77
2022-11-05T19:46:58.614Z,20.10
2022-11-05T19:52:21.816Z,10.70
2022-11-05T19:57:45.797Z,17.83
2022-11-05T20:03:10.026Z,15.57
2022-11-05T20:08:47.795Z,12.03
2022-11-05T20:14:18.270Z,14.93
2022-11-05T20:19:43.317Z,13.67
2022-11-05T20:25:06.745Z,12.67
2022-11-05T20:30:29.655Z,13.27
2022-11-05T20:35:52.701Z,15.87
2022-11-05T20:41:15.692Z,19.00
2022-11-05T20:46:39.126Z,16.97
2022-11-05T20:52:02.299Z,17.77
2022-11-05T20:57:25.672Z,14.87
2022-11-05T21:02:49.353Z,13.70
2022-11-05T21:08:12.516Z,12.23
2022-11-05T21:13:38.146Z,15.97
2022-11-05T21:19:00.533Z,12.33
2022-11-05T21:24:23.228Z,16.03
2022-11-05T21:29:45.782Z,17.40
2022-11-05T21:35:08.620Z,12.03
2022-11-05T21:40:31.489Z,14.30
2022-11-05T21:45:53.700Z,14.03
2022-11-05T21:51:35.953Z,14.47
2022-11-05T21:57:16.600Z,15.87
2022-11-05T22:02:39.041Z,16.47
2022-11-05T22:08:01.618Z,16.73
2022-11-05T22:13:24.026Z,15.70
2022-11-05T22:18:46.421Z,12.97
2022-11-05T22:24:09.373Z,12.70
2022-11-05T22:29:31.992Z,13.53
2022-11-05T22:34:54.381Z,12.43
2022-11-05T22:40:16.413Z,16.20
2022-11-05T22:45:38.628Z,12.93
2022-11-05T22:51:05.975Z,15.93
2022-11-05T22:56:31.117Z,9.03
2022-11-05T23:01:53.411Z,12.03
2022-11-05T23:07:34.537Z,14.77
2022-11-05T23:12:56.845Z,13.70
2022-11-05T23:18:37.676Z,15.17
2022-11-05T23:24:05.633Z,13.43
2022-11-05T23:29:27.874Z,15.37
2022-11-05T23:34:51.800Z,15.43
2022-11-05T23:40:20.845Z,12.40
2022-11-05T23:45:59.168Z,10.80
2022-11-05T23:51:21.216Z,9.30
2022-11-05T23:56:43.355Z,7.80
